Airfield :
LOGIN :

Register | Disclaimer

   EN    FR    IT 

 










Legend :    VFR   Marginal VFR   IFR   Intensive IFR   Very Intensive IFR
Visi :
Ceiling :
>= 8 km
>= 3000ft
5 to 8 km
1000 to 3000 ft
1500m to 5 km
500 to 1000 ft
800 to 1500m
200 to 500 ft
< 800m
< 200 ft
Symbols :   Thunderstorms  Fog  Heavy snow  Heavy precipitations  Wind > 20 kt
SIGMETs :     Misc.  Thunderstorms  Icing  Turbulence  Mountain Waves  Volcanic Ashes






- Airport Elevation : -11 ft
- IATA code : AMS


EHAM - Amsterdam Schiphol

CURRENT METAR :
  • 151725Z VRB02KT 9999 FEW035 SCT047 01/M01 Q1029 NOSIG

EXPIRED METARs :
  • 151655Z 18002KT 9999 FEW035 SCT048 02/M01 Q1029 NOSIG
  • 151625Z VRB01KT 9999 FEW035 BKN048 02/M01 Q1029 NOSIG
  • 151555Z VRB02KT 9999 FEW035 BKN047 02/M01 Q1029 NOSIG
  • 151525Z 00000KT 9999 FEW038 BKN046 02/M01 Q1029 NOSIG
  • 151455Z VRB02KT 9999 BKN047 03/M00 Q1029 NOSIG
  • 151425Z 00000KT 9999 BKN047 03/M00 Q1029 NOSIG

TAF TAF EHAM
Valid from the 15 at 12:00 until the 16 at 18:00 UTC


151121Z 1512/1618 30005KT 9999 BKN025
PROB30
TEMPO 1512/1516 7000 -RADZ -RASN BKN018
PROB30
TEMPO 1600/1607 4000 BR MIFG
BECMG 1606/1609 18012KT
BECMG 1613/1615 4000 -SN BKN012
PROB40
TEMPO 1615/1618 1200 SN VV003



MET'MAP, your aeronautical weather chart ! - Copyright ORBIFLY December 2007 - Disclaimer

ORBIFLY MET'MAP TEAM :

Programming & Development : Alexandra Zaïnal
Concept & original design : Baudouin d'Aumeries
Assistance for programming : Marc-Olivier Méhu
Technical & hardware support : Manuel Goepfert

Contact : metmap@orbifly.com




SOURCES & CREDITS :

   NOAA